Time;durP1;ratioP1;P1;durP2;ratioP2;P2;SDS_P1;SDS_P2;PMS_P1;PMS_P2;Temp;Humidity;BMP_temperature;BMP_pressure;BME280_temperature;BME280_humidity;BME280_pressure;Samples;Min_cycle;Max_cycle;Signal;HPM_P1;HPM_P2
2022/04/01 00:02:38;;;;;;;14.85;10.40;;;;;;;;;;5048523;28;20131;-66
2022/04/01 00:05:24;;;;;;;15.63;10.43;;;;;;;;;;5043317;28;20479;-66
2022/04/01 00:08:09;;;;;;;14.68;10.07;;;;;;;;;;5038029;28;20127;-67
2022/04/01 00:10:54;;;;;;;14.13;9.77;;;;;;;;;;5046199;28;20025;-67
2022/04/01 00:13:39;;;;;;;13.80;9.93;;;;;;;;;;5035843;28;20390;-67
2022/04/01 00:16:24;;;;;;;15.30;10.48;;;;;;;;;;5036283;28;20044;-61
2022/04/01 00:19:12;;;;;;;14.40;9.85;;;;;;;;;;5029033;28;20067;-67
2022/04/01 00:21:58;;;;;;;13.65;10.20;;;;;;;;;;5028851;28;20033;-66
2022/04/01 00:24:43;;;;;;;13.52;9.55;;;;;;;;;;5026049;28;20029;-66
2022/04/01 00:27:28;;;;;;;13.77;9.85;;;;;;;;;;5041834;28;20033;-68
2022/04/01 00:30:13;;;;;;;14.55;10.25;;;;;;;;;;5035369;28;20021;-68
2022/04/01 00:32:59;;;;;;;13.48;10.07;;;;;;;;;;5036016;28;20119;-68
2022/04/01 00:35:44;;;;;;;13.68;9.98;;;;;;;;;;5035857;28;20112;-60
2022/04/01 00:38:29;;;;;;;14.60;10.38;;;;;;;;;;5036775;28;20032;-68
2022/04/01 00:41:15;;;;;;;13.15;9.40;;;;;;;;;;5035680;28;20756;-66
2022/04/01 00:44:20;;;;;;;14.38;10.45;;;;;;;;;;5016945;28;20052;-66
2022/04/01 00:47:07;;;;;;;15.57;10.90;;;;;;;;;;5032426;28;20075;-66
2022/04/01 00:49:54;;;;;;;14.25;9.93;;;;;;;;;;5035253;28;20463;-67
2022/04/01 00:52:40;;;;;;;14.45;10.13;;;;;;;;;;5040033;28;20075;-66
2022/04/01 00:55:27;;;;;;;16.63;10.35;;;;;;;;;;5035112;28;20063;-69
2022/04/01 00:58:12;;;;;;;15.18;10.50;;;;;;;;;;5035829;28;20082;-68
2022/04/01 01:00:57;;;;;;;13.05;9.68;;;;;;;;;;5035537;28;20044;-70
2022/04/01 01:03:42;;;;;;;11.80;9.27;;;;;;;;;;5041902;28;20032;-69
2022/04/01 01:06:29;;;;;;;13.02;9.60;;;;;;;;;;5043432;28;20090;-69
2022/04/01 01:09:15;;;;;;;14.93;9.75;;;;;;;;;;5035374;28;20029;-69
2022/04/01 01:12:01;;;;;;;14.57;10.45;;;;;;;;;;5015354;28;20029;-66
2022/04/01 01:14:46;;;;;;;13.43;10.13;;;;;;;;;;5030259;28;20116;-69
2022/04/01 01:17:31;;;;;;;14.88;10.15;;;;;;;;;;5037971;28;20033;-70
2022/04/01 01:20:17;;;;;;;13.95;9.48;;;;;;;;;;5035781;28;20171;-73
2022/04/01 01:23:02;;;;;;;11.82;9.18;;;;;;;;;;5034921;28;20033;-71
2022/04/01 01:25:48;;;;;;;13.27;9.13;;;;;;;;;;5037960;28;20079;-70
2022/04/01 01:28:33;;;;;;;14.23;10.38;;;;;;;;;;5029914;28;20083;-69
2022/04/01 01:31:19;;;;;;;11.85;8.40;;;;;;;;;;5022130;28;20060;-61
2022/04/01 01:34:04;;;;;;;13.73;9.50;;;;;;;;;;5035957;28;20415;-63
2022/04/01 01:36:50;;;;;;;12.85;8.85;;;;;;;;;;5039304;28;20519;-63
2022/04/01 01:39:36;;;;;;;12.50;8.60;;;;;;;;;;5035903;28;20276;-65
2022/04/01 01:42:21;;;;;;;13.02;9.60;;;;;;;;;;5048363;28;20024;-66
2022/04/01 01:45:07;;;;;;;12.25;9.15;;;;;;;;;;5035316;28;20028;-64
2022/04/01 01:47:52;;;;;;;12.10;8.20;;;;;;;;;;5023951;28;20036;-69
2022/04/01 01:56:46;;;;;;;13.95;9.88;;;;;;;;;;5034376;28;20479;-69
2022/04/01 01:59:32;;;;;;;12.50;8.70;;;;;;;;;;5047310;28;20044;-71
2022/04/01 02:02:18;;;;;;;13.35;9.45;;;;;;;;;;5020350;28;20029;-70
2022/04/01 02:05:06;;;;;;;12.55;9.27;;;;;;;;;;5028482;28;20535;-69
2022/04/01 02:07:53;;;;;;;12.93;9.48;;;;;;;;;;5033595;28;20054;-69
2022/04/01 02:10:38;;;;;;;12.88;9.18;;;;;;;;;;5034063;28;20108;-69
2022/04/01 02:13:24;;;;;;;14.52;10.55;;;;;;;;;;5040220;28;20515;-68
2022/04/01 02:16:09;;;;;;;12.35;9.05;;;;;;;;;;5034711;28;20061;-67
2022/04/01 02:18:54;;;;;;;13.82;9.70;;;;;;;;;;5033076;28;20041;-70
2022/04/01 02:21:39;;;;;;;12.82;9.27;;;;;;;;;;5033673;28;20029;-68
2022/04/01 02:24:25;;;;;;;14.82;10.73;;;;;;;;;;5026029;28;20128;-68
2022/04/01 02:27:11;;;;;;;15.40;10.65;;;;;;;;;;5034199;28;20086;-67
2022/04/01 02:29:57;;;;;;;14.20;10.43;;;;;;;;;;5047039;28;20068;-69
2022/04/01 02:32:42;;;;;;;14.98;11.05;;;;;;;;;;5034425;28;20024;-67
2022/04/01 02:35:28;;;;;;;14.30;9.77;;;;;;;;;;5032693;28;20028;-68
2022/04/01 02:38:13;;;;;;;14.77;10.07;;;;;;;;;;5035549;28;20464;-66
2022/04/01 02:40:58;;;;;;;14.00;10.30;;;;;;;;;;5034239;28;20044;-66
2022/04/01 02:43:44;;;;;;;12.23;9.80;;;;;;;;;;5033844;28;20080;-67
2022/04/01 02:46:29;;;;;;;13.10;10.40;;;;;;;;;;5031992;28;20376;-67
2022/04/01 02:49:15;;;;;;;13.95;9.98;;;;;;;;;;5038140;28;20032;-67
2022/04/01 02:52:00;;;;;;;14.43;10.57;;;;;;;;;;5024846;28;20539;-66
2022/04/01 02:54:46;;;;;;;15.27;11.43;;;;;;;;;;5032551;28;20562;-66
2022/04/01 02:57:33;;;;;;;14.50;10.68;;;;;;;;;;5036075;28;20044;-65
2022/04/01 03:00:21;;;;;;;15.07;11.38;;;;;;;;;;5045849;28;20438;-69
2022/04/01 03:03:08;;;;;;;13.98;10.23;;;;;;;;;;5034447;28;20025;-70
2022/04/01 03:05:54;;;;;;;14.60;10.65;;;;;;;;;;5046569;28;20037;-69
2022/04/01 03:08:40;;;;;;;16.65;11.85;;;;;;;;;;5034137;28;20066;-69
2022/04/01 03:11:25;;;;;;;14.57;11.13;;;;;;;;;;5025038;28;20473;-69
2022/04/01 03:14:11;;;;;;;16.10;11.52;;;;;;;;;;5033699;28;20157;-68
2022/04/01 03:16:57;;;;;;;17.27;12.45;;;;;;;;;;5028083;28;20059;-69
2022/04/01 03:19:42;;;;;;;15.10;12.15;;;;;;;;;;5033829;28;20040;-68
2022/04/01 03:22:27;;;;;;;16.55;13.18;;;;;;;;;;5031298;28;20148;-68
2022/04/01 03:25:13;;;;;;;18.75;13.98;;;;;;;;;;5038632;28;20037;-69
2022/04/01 03:28:00;;;;;;;21.52;16.15;;;;;;;;;;5016714;28;20380;-69
2022/04/01 03:30:45;;;;;;;20.20;15.07;;;;;;;;;;5034006;28;20033;-68
2022/04/01 03:33:32;;;;;;;22.98;17.05;;;;;;;;;;5036384;28;20075;-68
2022/04/01 03:36:18;;;;;;;19.80;15.00;;;;;;;;;;5036558;28;20043;-70
2022/04/01 03:39:03;;;;;;;20.80;15.93;;;;;;;;;;5037598;28;20032;-68
2022/04/01 03:41:49;;;;;;;19.13;14.60;;;;;;;;;;5023096;28;20033;-62
2022/04/01 03:44:36;;;;;;;18.50;14.07;;;;;;;;;;5037634;28;20475;-62
2022/04/01 03:47:25;;;;;;;20.05;14.43;;;;;;;;;;5050037;28;20433;-65
2022/04/01 03:50:11;;;;;;;17.25;13.93;;;;;;;;;;5046260;28;20044;-62
2022/04/01 03:53:01;;;;;;;17.30;13.77;;;;;;;;;;5054664;28;20032;-67
2022/04/01 03:55:46;;;;;;;18.20;13.48;;;;;;;;;;5035542;28;20072;-63
2022/04/01 03:58:33;;;;;;;16.48;12.38;;;;;;;;;;5034081;28;20087;-64
2022/04/01 04:01:19;;;;;;;19.10;13.90;;;;;;;;;;5039497;28;20423;-68
2022/04/01 04:04:05;;;;;;;18.33;14.30;;;;;;;;;;5036218;28;20125;-67
2022/04/01 04:06:51;;;;;;;15.02;11.80;;;;;;;;;;5037211;28;20061;-69
2022/04/01 04:09:40;;;;;;;17.70;12.82;;;;;;;;;;5027411;28;20034;-72
2022/04/01 04:12:30;;;;;;;18.00;12.80;;;;;;;;;;5036494;28;20068;-69
2022/04/01 04:15:16;;;;;;;16.83;12.38;;;;;;;;;;5046401;28;20061;-71
2022/04/01 04:18:02;;;;;;;15.75;11.95;;;;;;;;;;5029306;28;20025;-68
2022/04/01 04:20:49;;;;;;;15.93;11.98;;;;;;;;;;5036611;28;20110;-68
2022/04/01 04:23:42;;;;;;;15.20;11.32;;;;;;;;;;5035145;28;20448;-67
2022/04/01 04:26:32;;;;;;;15.95;11.43;;;;;;;;;;5036557;28;20028;-67
2022/04/01 04:29:17;;;;;;;;;;;;;;;;;;5036430;28;20124;-68
2022/04/01 04:32:03;;;;;;;13.60;9.85;;;;;;;;;;5036467;28;19944;-67
2022/04/01 04:34:49;;;;;;;15.35;11.05;;;;;;;;;;5026813;28;20071;-68
2022/04/01 04:37:35;;;;;;;15.02;10.13;;;;;;;;;;5032325;28;20029;-62
2022/04/01 04:40:21;;;;;;;15.82;11.90;;;;;;;;;;5034745;28;20079;-60
2022/04/01 04:43:07;;;;;;;16.05;11.20;;;;;;;;;;5026103;28;20059;-61
2022/04/01 04:45:56;;;;;;;14.77;10.70;;;;;;;;;;5038925;28;20036;-61
2022/04/01 04:48:42;;;;;;;14.35;10.38;;;;;;;;;;5035275;28;20025;-64
2022/04/01 04:51:28;;;;;;;15.90;11.43;;;;;;;;;;5035863;28;20100;-69
2022/04/01 04:54:14;;;;;;;14.10;10.23;;;;;;;;;;5045938;28;20033;-66
2022/04/01 04:57:00;;;;;;;14.05;10.55;;;;;;;;;;5036054;28;20111;-66
2022/04/01 04:59:46;;;;;;;15.38;10.93;;;;;;;;;;5045513;28;20045;-67
2022/04/01 05:02:42;;;;;;;14.90;11.07;;;;;;;;;;5035654;28;20049;-68
2022/04/01 05:05:54;;;;;;;13.50;9.65;;;;;;;;;;5049095;28;20051;-69
2022/04/01 05:08:55;;;;;;;13.20;9.88;;;;;;;;;;5022176;28;20041;-66
2022/04/01 05:11:41;;;;;;;15.05;11.23;;;;;;;;;;5038904;28;20516;-64
2022/04/01 05:14:35;;;;;;;13.30;9.65;;;;;;;;;;5049434;28;20024;-67
2022/04/01 05:17:25;;;;;;;13.43;9.48;;;;;;;;;;5036923;28;20029;-66
2022/04/01 05:20:17;;;;;;;13.10;9.93;;;;;;;;;;5034758;28;20108;-68
2022/04/01 05:23:13;;;;;;;13.30;9.70;;;;;;;;;;5034671;28;20035;-67
2022/04/01 05:26:06;;;;;;;12.20;8.93;;;;;;;;;;5021013;28;20428;-67
2022/04/01 05:28:52;;;;;;;14.07;10.25;;;;;;;;;;5036005;28;20032;-67
2022/04/01 05:31:46;;;;;;;12.32;9.10;;;;;;;;;;5048106;28;20083;-60
2022/04/01 05:34:37;;;;;;;12.98;10.05;;;;;;;;;;5021838;28;20116;-59
2022/04/01 05:37:25;;;;;;;13.10;9.18;;;;;;;;;;5033136;28;20065;-63
2022/04/01 05:40:11;;;;;;;13.50;9.05;;;;;;;;;;5038367;28;20556;-61
2022/04/01 05:42:57;;;;;;;11.77;9.13;;;;;;;;;;5034091;28;20029;-64
2022/04/01 05:45:43;;;;;;;14.13;10.23;;;;;;;;;;5034389;28;20132;-60
2022/04/01 05:48:28;;;;;;;13.05;10.02;;;;;;;;;;5021440;28;20021;-63
2022/04/01 05:51:14;;;;;;;13.20;10.07;;;;;;;;;;5044158;28;20024;-68
2022/04/01 05:54:00;;;;;;;13.27;9.73;;;;;;;;;;5044865;28;20060;-71
2022/04/01 05:56:47;;;;;;;14.73;10.63;;;;;;;;;;5031921;28;20102;-67
2022/04/01 05:59:33;;;;;;;14.05;9.88;;;;;;;;;;5033857;28;20056;-70
2022/04/01 06:02:21;;;;;;;14.38;9.73;;;;;;;;;;5046743;28;20043;-67
2022/04/01 06:05:26;;;;;;;13.43;10.10;;;;;;;;;;5053261;28;20036;-68
2022/04/01 06:08:17;;;;;;;13.30;9.55;;;;;;;;;;5031904;28;20039;-65
2022/04/01 06:11:05;;;;;;;12.90;8.70;;;;;;;;;;5036450;28;20029;-65
2022/04/01 06:13:57;;;;;;;12.82;9.07;;;;;;;;;;5033069;28;20029;-66
2022/04/01 06:16:52;;;;;;;13.77;10.73;;;;;;;;;;5051202;28;20504;-66
2022/04/01 06:19:42;;;;;;;13.35;10.45;;;;;;;;;;5028493;28;20488;-64
2022/04/01 06:22:30;;;;;;;14.50;10.05;;;;;;;;;;5032518;28;20120;-66
2022/04/01 06:25:18;;;;;;;12.77;9.23;;;;;;;;;;5031815;28;20040;-63
2022/04/01 06:28:13;;;;;;;13.85;10.40;;;;;;;;;;5039844;28;20052;-65
2022/04/01 06:31:04;;;;;;;13.98;10.60;;;;;;;;;;5047742;28;20049;-68
2022/04/01 06:33:57;;;;;;;13.10;9.55;;;;;;;;;;5032964;28;20495;-66
2022/04/01 06:36:49;;;;;;;14.45;10.00;;;;;;;;;;5034018;28;20417;-66
2022/04/01 06:39:53;;;;;;;15.23;10.02;;;;;;;;;;5031952;28;20028;-66
2022/04/01 06:42:39;;;;;;;12.98;9.60;;;;;;;;;;5029120;28;20041;-61
2022/04/01 06:45:25;;;;;;;13.38;10.13;;;;;;;;;;5035573;28;20164;-66
2022/04/01 06:48:11;;;;;;;14.88;11.05;;;;;;;;;;5034188;28;20219;-65
2022/04/01 06:50:57;;;;;;;12.48;9.73;;;;;;;;;;5033003;28;20063;-66
2022/04/01 06:53:42;;;;;;;14.00;10.38;;;;;;;;;;5033181;28;20036;-66
2022/04/01 06:56:27;;;;;;;13.93;10.57;;;;;;;;;;5037701;28;20076;-66
2022/04/01 06:59:13;;;;;;;13.35;9.63;;;;;;;;;;5033525;28;20037;-68
2022/04/01 07:01:59;;;;;;;13.98;11.10;;;;;;;;;;5036656;28;20133;-61
2022/04/01 07:04:44;;;;;;;13.38;10.20;;;;;;;;;;5021895;28;20488;-60
2022/04/01 07:07:29;;;;;;;14.70;10.73;;;;;;;;;;5034771;28;20074;-60
2022/04/01 07:10:14;;;;;;;12.50;10.07;;;;;;;;;;5038494;28;20025;-61
2022/04/01 07:13:00;;;;;;;15.13;11.73;;;;;;;;;;5040250;28;20029;-60
2022/04/01 07:15:45;;;;;;;15.52;11.35;;;;;;;;;;5028277;28;20097;-64
2022/04/01 07:18:31;;;;;;;15.55;11.23;;;;;;;;;;5038469;28;20067;-68
2022/04/01 07:21:16;;;;;;;13.35;10.27;;;;;;;;;;5043796;28;20041;-66
2022/04/01 07:24:02;;;;;;;14.32;11.00;;;;;;;;;;5041968;28;20083;-64
2022/04/01 07:26:47;;;;;;;15.25;11.75;;;;;;;;;;5047591;28;20456;-64
2022/04/01 07:29:32;;;;;;;14.38;10.68;;;;;;;;;;5046551;28;20025;-66
2022/04/01 07:32:30;;;;;;;15.02;12.10;;;;;;;;;;5046215;28;20170;-65
2022/04/01 07:35:15;;;;;;;15.35;11.88;;;;;;;;;;5053831;28;20079;-67
2022/04/01 07:38:00;;;;;;;15.77;11.85;;;;;;;;;;5046350;28;20503;-61
2022/04/01 07:40:45;;;;;;;13.30;10.40;;;;;;;;;;5034027;28;20049;-68
2022/04/01 07:43:31;;;;;;;16.00;12.63;;;;;;;;;;5031147;28;20024;-54
2022/04/01 07:46:16;;;;;;;17.05;11.88;;;;;;;;;;5032695;28;20480;-56
2022/04/01 07:49:01;;;;;;;15.73;12.50;;;;;;;;;;5035288;28;20046;-54
2022/04/01 07:51:46;;;;;;;14.15;11.32;;;;;;;;;;5035031;28;20047;-51
2022/04/01 07:54:32;;;;;;;16.98;11.77;;;;;;;;;;5035859;28;20094;-58
2022/04/01 07:57:18;;;;;;;13.98;10.57;;;;;;;;;;5037367;28;20055;-58
2022/04/01 08:00:05;;;;;;;14.20;10.95;;;;;;;;;;5051478;28;20570;-66
2022/04/01 08:02:53;;;;;;;13.75;10.35;;;;;;;;;;5050258;28;20379;-69
2022/04/01 08:05:38;;;;;;;15.07;11.65;;;;;;;;;;5040429;28;20090;-68
2022/04/01 08:08:23;;;;;;;15.88;11.75;;;;;;;;;;5037173;28;20124;-68
2022/04/01 08:11:09;;;;;;;14.15;11.45;;;;;;;;;;5035641;28;20025;-69
2022/04/01 08:13:55;;;;;;;15.63;11.43;;;;;;;;;;5034900;28;20047;-67
2022/04/01 08:16:40;;;;;;;15.48;11.65;;;;;;;;;;5022258;28;20037;-68
2022/04/01 08:19:25;;;;;;;15.77;10.80;;;;;;;;;;5035689;28;20029;-67
2022/04/01 08:22:11;;;;;;;14.35;11.30;;;;;;;;;;5036254;28;20380;-66
2022/04/01 08:24:56;;;;;;;16.35;10.98;;;;;;;;;;5031573;28;20095;-68
2022/04/01 08:27:41;;;;;;;15.32;12.35;;;;;;;;;;5027824;28;20438;-67
2022/04/01 08:30:28;;;;;;;14.75;11.80;;;;;;;;;;5036892;28;20043;-67
2022/04/01 08:33:17;;;;;;;14.85;11.45;;;;;;;;;;5036110;28;20033;-67
2022/04/01 08:36:03;;;;;;;16.30;12.75;;;;;;;;;;5043035;28;20037;-66
2022/04/01 08:38:48;;;;;;;15.80;11.95;;;;;;;;;;5035450;28;20064;-65
2022/04/01 08:41:33;;;;;;;16.38;13.32;;;;;;;;;;5050385;28;20420;-66
2022/04/01 08:44:19;;;;;;;16.67;12.82;;;;;;;;;;5036237;28;20047;-66
2022/04/01 08:47:04;;;;;;;14.68;11.48;;;;;;;;;;5036669;28;20028;-68
2022/04/01 08:49:49;;;;;;;14.90;11.68;;;;;;;;;;5034243;28;20060;-67
2022/04/01 08:52:35;;;;;;;14.82;11.55;;;;;;;;;;5035980;28;20071;-67
2022/04/01 08:55:20;;;;;;;15.57;11.45;;;;;;;;;;5038154;28;20381;-68
2022/04/01 08:58:05;;;;;;;15.43;12.00;;;;;;;;;;5022661;28;20045;-65
2022/04/01 09:00:51;;;;;;;13.55;10.68;;;;;;;;;;5034715;28;20395;-66
2022/04/01 09:03:36;;;;;;;15.48;11.98;;;;;;;;;;5048845;28;20460;-67
2022/04/01 09:06:21;;;;;;;15.70;11.73;;;;;;;;;;5035793;28;20076;-69
2022/04/01 09:09:19;;;;;;;13.00;10.60;;;;;;;;;;5034857;28;20127;-66
2022/04/01 09:12:05;;;;;;;13.18;10.52;;;;;;;;;;5036231;28;20588;-60
2022/04/01 09:14:51;;;;;;;13.88;10.40;;;;;;;;;;5034528;28;20166;-61
2022/04/01 09:17:41;;;;;;;13.77;10.10;;;;;;;;;;5035894;28;20067;-63
2022/04/01 09:20:26;;;;;;;12.85;10.27;;;;;;;;;;5035165;28;20533;-61
2022/04/01 09:23:11;;;;;;;12.25;9.50;;;;;;;;;;5035951;28;20032;-61
2022/04/01 09:25:57;;;;;;;12.90;10.23;;;;;;;;;;5035860;28;20036;-65
2022/04/01 09:28:42;;;;;;;11.65;8.93;;;;;;;;;;5036053;28;20028;-66
2022/04/01 09:31:37;;;;;;;12.77;9.60;;;;;;;;;;5033265;28;20055;-61
2022/04/01 09:34:28;;;;;;;17.17;10.95;;;;;;;;;;5035770;28;20032;-62
2022/04/01 09:37:13;;;;;;;20.25;10.68;;;;;;;;;;5035908;28;20231;-62
2022/04/01 09:39:59;;;;;;;35.58;12.57;;;;;;;;;;5035223;28;20468;-63
2022/04/01 09:42:46;;;;;;;16.08;9.43;;;;;;;;;;5035408;28;20021;-65
2022/04/01 09:45:35;;;;;;;15.65;9.77;;;;;;;;;;5034585;28;20066;-63
2022/04/01 09:48:21;;;;;;;11.52;8.05;;;;;;;;;;5035161;28;20494;-66
2022/04/01 09:51:08;;;;;;;11.48;8.25;;;;;;;;;;5034664;28;20045;-63
2022/04/01 09:53:54;;;;;;;12.52;9.25;;;;;;;;;;5036459;28;20040;-61
2022/04/01 09:56:45;;;;;;;12.20;8.48;;;;;;;;;;5034755;28;20026;-61
2022/04/01 09:59:33;;;;;;;12.95;8.68;;;;;;;;;;5023279;28;20395;-62
2022/04/01 10:02:19;;;;;;;12.38;9.40;;;;;;;;;;5033960;28;20033;-63
2022/04/01 10:05:06;;;;;;;10.68;8.52;;;;;;;;;;5035178;28;20032;-68
2022/04/01 10:07:53;;;;;;;12.23;9.05;;;;;;;;;;5038292;28;20060;-68
2022/04/01 10:10:38;;;;;;;11.30;8.40;;;;;;;;;;5034808;28;20044;-69
2022/04/01 10:13:29;;;;;;;12.20;9.15;;;;;;;;;;5033563;28;20116;-67
2022/04/01 10:16:15;;;;;;;11.35;8.98;;;;;;;;;;5034946;28;20021;-69
2022/04/01 10:19:03;;;;;;;10.50;8.10;;;;;;;;;;5031299;28;20452;-69
2022/04/01 10:21:48;;;;;;;11.48;8.65;;;;;;;;;;5042012;28;20033;-68
2022/04/01 10:24:36;;;;;;;9.73;7.00;;;;;;;;;;5021790;28;20028;-66
2022/04/01 10:27:23;;;;;;;11.35;7.65;;;;;;;;;;5032674;28;20021;-66
2022/04/01 10:30:09;;;;;;;10.10;7.18;;;;;;;;;;5034573;28;20126;-65
2022/04/01 10:32:54;;;;;;;9.55;7.20;;;;;;;;;;5033929;28;20044;-66
2022/04/01 10:35:40;;;;;;;10.68;7.40;;;;;;;;;;5038698;28;20543;-66
2022/04/01 10:38:29;;;;;;;9.15;6.95;;;;;;;;;;5043489;28;20028;-66
2022/04/01 10:41:15;;;;;;;8.35;6.32;;;;;;;;;;5032827;28;20106;-66
2022/04/01 10:44:01;;;;;;;7.55;5.82;;;;;;;;;;5002754;28;20120;-61
2022/04/01 10:46:56;;;;;;;6.82;4.90;;;;;;;;;;5033822;28;20029;-64
2022/04/01 10:52:45;;;;;;;6.63;4.63;;;;;;;;;;5035124;28;20032;-60
2022/04/01 10:55:31;;;;;;;7.22;4.82;;;;;;;;;;5014904;28;20029;-60
2022/04/01 10:58:16;;;;;;;5.55;4.25;;;;;;;;;;5038546;28;20425;-59
2022/04/01 11:01:03;;;;;;;6.25;3.83;;;;;;;;;;5033826;28;20052;-66
2022/04/01 11:03:51;;;;;;;5.57;3.97;;;;;;;;;;5021187;28;20462;-65
2022/04/01 11:06:52;;;;;;;4.90;3.55;;;;;;;;;;5047980;28;20044;-64
2022/04/01 11:09:45;;;;;;;4.50;3.28;;;;;;;;;;5045614;28;20033;-68
2022/04/01 11:12:33;;;;;;;5.35;3.33;;;;;;;;;;5034464;28;20047;-65
2022/04/01 11:15:25;;;;;;;4.32;2.70;;;;;;;;;;5033251;28;20056;-67
2022/04/01 11:18:10;;;;;;;3.92;2.78;;;;;;;;;;5033736;28;20388;-64
2022/04/01 11:20:56;;;;;;;4.43;3.00;;;;;;;;;;5032760;28;20516;-65
2022/04/01 11:23:41;;;;;;;3.80;3.15;;;;;;;;;;5043427;28;20055;-65
2022/04/01 11:26:40;;;;;;;4.20;3.05;;;;;;;;;;5028078;28;20039;-66
2022/04/01 11:29:26;;;;;;;3.20;2.30;;;;;;;;;;5032805;28;20116;-66
2022/04/01 11:32:17;;;;;;;3.20;2.15;;;;;;;;;;5034125;28;20032;-65
2022/04/01 11:35:04;;;;;;;3.35;2.40;;;;;;;;;;5034188;28;20369;-64
2022/04/01 11:37:49;;;;;;;3.15;2.50;;;;;;;;;;5020380;28;20114;-64
2022/04/01 11:40:36;;;;;;;3.47;2.55;;;;;;;;;;5033109;28;20037;-67
2022/04/01 11:43:22;;;;;;;2.33;2.10;;;;;;;;;;5034137;28;20033;-66
2022/04/01 11:46:09;;;;;;;2.92;2.42;;;;;;;;;;5018791;28;20284;-65
2022/04/01 11:48:56;;;;;;;2.55;1.92;;;;;;;;;;5033416;28;20029;-66
2022/04/01 11:51:42;;;;;;;4.82;2.70;;;;;;;;;;5029634;28;20068;-64
2022/04/01 11:54:27;;;;;;;3.30;2.50;;;;;;;;;;5021791;28;20039;-62
2022/04/01 11:57:12;;;;;;;4.55;3.03;;;;;;;;;;5030969;28;20027;-65
2022/04/01 12:00:00;;;;;;;3.80;3.00;;;;;;;;;;5031490;28;20095;-66
2022/04/01 12:02:48;;;;;;;5.25;2.97;;;;;;;;;;5036689;28;20035;-66
2022/04/01 12:05:33;;;;;;;3.55;2.75;;;;;;;;;;5038283;28;20066;-64
2022/04/01 12:11:22;;;;;;;3.85;3.17;;;;;;;;;;5021515;28;20496;-64
2022/04/01 12:14:08;;;;;;;5.30;3.53;;;;;;;;;;5041842;28;20033;-66
2022/04/01 12:16:53;;;;;;;3.75;3.10;;;;;;;;;;5049218;28;20031;-68
2022/04/01 12:19:38;;;;;;;4.50;3.17;;;;;;;;;;5040428;28;20049;-67
2022/04/01 12:22:24;;;;;;;5.60;3.63;;;;;;;;;;5038237;28;20024;-69
2022/04/01 12:25:09;;;;;;;5.75;3.70;;;;;;;;;;5037058;28;20225;-67
2022/04/01 12:27:56;;;;;;;4.22;3.42;;;;;;;;;;5035930;28;20037;-66
2022/04/01 12:30:48;;;;;;;5.80;3.45;;;;;;;;;;5036747;28;20116;-67
2022/04/01 12:33:33;;;;;;;5.25;3.88;;;;;;;;;;5036676;28;20488;-62
2022/04/01 12:36:48;;;;;;;6.03;4.82;;;;;;;;;;5036834;28;20086;-66
2022/04/01 12:39:35;;;;;;;6.70;4.68;;;;;;;;;;5010929;28;20549;-66
2022/04/01 12:42:21;;;;;;;5.35;4.47;;;;;;;;;;5023341;28;20032;-66
2022/04/01 12:45:06;;;;;;;6.45;4.50;;;;;;;;;;5043630;28;20025;-66
2022/04/01 12:47:52;;;;;;;6.72;4.78;;;;;;;;;;5020032;28;20472;-66
2022/04/01 12:50:37;;;;;;;8.32;4.80;;;;;;;;;;5022400;28;20067;-67
2022/04/01 12:53:23;;;;;;;6.50;5.15;;;;;;;;;;5035900;28;20412;-61
2022/04/01 12:56:19;;;;;;;5.95;4.65;;;;;;;;;;5036276;28;20031;-60
2022/04/01 12:59:09;;;;;;;5.55;4.30;;;;;;;;;;5030748;28;20391;-62
2022/04/01 13:01:59;;;;;;;6.38;4.85;;;;;;;;;;5035908;28;20527;-61
2022/04/01 13:04:49;;;;;;;7.20;4.60;;;;;;;;;;5033996;28;20466;-62
2022/04/01 13:07:34;;;;;;;7.90;5.63;;;;;;;;;;5034960;28;20061;-61
2022/04/01 13:10:21;;;;;;;9.15;5.65;;;;;;;;;;5034749;28;20068;-62
2022/04/01 13:13:17;;;;;;;7.22;4.97;;;;;;;;;;5050068;28;20032;-67
2022/04/01 13:16:02;;;;;;;7.32;4.80;;;;;;;;;;5035071;28;20476;-68
2022/04/01 13:18:47;;;;;;;7.85;5.68;;;;;;;;;;5031497;28;20094;-68
2022/04/01 13:21:33;;;;;;;7.63;5.45;;;;;;;;;;5035592;28;20078;-66
2022/04/01 13:24:23;;;;;;;6.32;4.90;;;;;;;;;;5032375;28;20021;-67
2022/04/01 13:27:11;;;;;;;7.75;5.20;;;;;;;;;;5035762;28;20051;-67
2022/04/01 13:29:58;;;;;;;7.75;5.70;;;;;;;;;;5034890;28;20316;-67
2022/04/01 13:32:44;;;;;;;8.90;6.50;;;;;;;;;;5049396;28;20036;-64
2022/04/01 13:35:30;;;;;;;7.78;6.03;;;;;;;;;;5042296;28;20032;-63
2022/04/01 13:38:16;;;;;;;8.85;6.43;;;;;;;;;;5021604;28;20037;-64
2022/04/01 13:41:01;;;;;;;10.65;6.55;;;;;;;;;;5034150;28;20045;-64
2022/04/01 13:43:46;;;;;;;9.05;6.47;;;;;;;;;;5036715;28;20025;-66
2022/04/01 13:46:31;;;;;;;8.65;6.47;;;;;;;;;;5034022;28;20107;-62
2022/04/01 13:49:17;;;;;;;8.05;6.15;;;;;;;;;;5035429;28;20040;-66
2022/04/01 13:52:02;;;;;;;10.57;6.25;;;;;;;;;;5034193;28;20388;-65
2022/04/01 13:54:48;;;;;;;9.75;6.53;;;;;;;;;;5048416;28;20040;-67
2022/04/01 13:57:34;;;;;;;9.77;6.40;;;;;;;;;;5020845;28;20052;-64
2022/04/01 14:00:21;;;;;;;8.75;6.10;;;;;;;;;;5016189;28;20044;-65
2022/04/01 14:03:07;;;;;;;7.10;5.50;;;;;;;;;;5035259;28;20028;-63
2022/04/01 14:05:54;;;;;;;8.57;5.90;;;;;;;;;;5033627;28;20044;-67
2022/04/01 14:08:39;;;;;;;8.20;6.40;;;;;;;;;;5035248;28;20286;-65
2022/04/01 14:11:24;;;;;;;7.72;6.13;;;;;;;;;;5035794;28;20052;-66
2022/04/01 14:14:10;;;;;;;8.50;6.45;;;;;;;;;;5050350;28;20028;-66
2022/04/01 14:16:55;;;;;;;9.32;6.93;;;;;;;;;;5035440;28;20101;-65
2022/04/01 14:19:40;;;;;;;9.48;7.18;;;;;;;;;;5044625;28;20332;-65
2022/04/01 14:22:26;;;;;;;10.50;7.65;;;;;;;;;;5041077;28;20024;-69
2022/04/01 14:25:11;;;;;;;10.02;7.97;;;;;;;;;;5034433;28;20552;-68
2022/04/01 14:27:56;;;;;;;9.98;7.38;;;;;;;;;;5033493;28;20052;-69
2022/04/01 14:30:42;;;;;;;9.95;8.30;;;;;;;;;;5048023;28;20530;-67
2022/04/01 14:33:27;;;;;;;11.73;8.93;;;;;;;;;;5033660;28;20082;-66
2022/04/01 14:36:13;;;;;;;10.60;8.02;;;;;;;;;;5034927;28;20525;-68
2022/04/01 14:38:58;;;;;;;11.55;8.85;;;;;;;;;;5025654;28;20037;-66
2022/04/01 14:41:44;;;;;;;11.43;8.40;;;;;;;;;;5035303;28;20446;-67
2022/04/01 14:44:29;;;;;;;11.57;9.00;;;;;;;;;;5034735;28;20040;-65
2022/04/01 14:47:14;;;;;;;12.43;9.38;;;;;;;;;;5033452;28;20190;-65
2022/04/01 14:50:00;;;;;;;12.50;9.48;;;;;;;;;;5014846;28;20115;-65
2022/04/01 14:52:45;;;;;;;10.98;8.65;;;;;;;;;;5036630;28;20056;-66
2022/04/01 14:55:31;;;;;;;13.30;10.55;;;;;;;;;;5068588;28;20037;-65
2022/04/01 14:58:16;;;;;;;12.25;9.25;;;;;;;;;;5017373;28;20128;-63
2022/04/01 15:01:01;;;;;;;11.68;9.48;;;;;;;;;;5032228;28;20041;-61
2022/04/01 15:03:46;;;;;;;13.35;9.40;;;;;;;;;;5033059;28;20037;-61
2022/04/01 15:06:32;;;;;;;12.93;10.35;;;;;;;;;;5048195;28;20033;-62
2022/04/01 15:09:19;;;;;;;12.45;9.95;;;;;;;;;;5035554;28;20405;-63
2022/04/01 15:12:04;;;;;;;12.98;10.32;;;;;;;;;;5052824;28;20107;-64
2022/04/01 15:14:49;;;;;;;11.77;9.35;;;;;;;;;;5037188;28;20029;-62
2022/04/01 15:17:36;;;;;;;12.77;9.48;;;;;;;;;;5034082;28;20036;-68
2022/04/01 15:20:21;;;;;;;13.48;10.35;;;;;;;;;;5032908;28;20135;-65
2022/04/01 15:23:06;;;;;;;14.35;10.25;;;;;;;;;;5034643;28;20029;-64
2022/04/01 15:25:51;;;;;;;13.40;11.25;;;;;;;;;;5038269;28;20029;-63
2022/04/01 15:28:37;;;;;;;13.95;10.25;;;;;;;;;;5048610;28;20316;-67
2022/04/01 15:31:22;;;;;;;14.10;11.55;;;;;;;;;;5032130;28;20315;-64
2022/04/01 15:34:07;;;;;;;14.93;11.80;;;;;;;;;;5036004;28;20068;-64
2022/04/01 15:36:53;;;;;;;14.25;11.35;;;;;;;;;;5040203;28;20044;-61
2022/04/01 15:39:39;;;;;;;14.38;11.35;;;;;;;;;;5040570;28;20025;-58
2022/04/01 15:42:26;;;;;;;14.60;11.00;;;;;;;;;;5037925;28;20036;-60
2022/04/01 15:45:11;;;;;;;13.88;11.23;;;;;;;;;;5050569;28;20048;-61
2022/04/01 15:47:58;;;;;;;13.77;10.85;;;;;;;;;;5050931;28;20138;-61
2022/04/01 15:50:43;;;;;;;15.05;10.98;;;;;;;;;;5032327;28;20028;-60
2022/04/01 15:53:29;;;;;;;13.40;10.40;;;;;;;;;;5037797;28;20036;-65
2022/04/01 15:56:14;;;;;;;13.35;11.07;;;;;;;;;;5050553;28;20165;-64
2022/04/01 15:59:00;;;;;;;12.85;10.05;;;;;;;;;;5035462;28;20496;-66
2022/04/01 16:01:45;;;;;;;14.05;10.88;;;;;;;;;;5038627;28;20319;-63
2022/04/01 16:04:35;;;;;;;12.00;9.82;;;;;;;;;;5051314;28;20151;-65
2022/04/01 16:07:21;;;;;;;13.55;9.60;;;;;;;;;;5043984;28;20045;-64
2022/04/01 16:10:09;;;;;;;12.90;10.00;;;;;;;;;;5037239;28;20036;-64
2022/04/01 16:12:58;;;;;;;14.07;10.50;;;;;;;;;;5031273;28;20041;-59
2022/04/01 16:15:43;;;;;;;13.00;8.82;;;;;;;;;;5049398;28;20473;-67
2022/04/01 16:18:29;;;;;;;13.77;10.27;;;;;;;;;;5051009;28;20087;-66
2022/04/01 16:21:14;;;;;;;12.77;10.68;;;;;;;;;;5035341;28;20035;-66
2022/04/01 16:24:00;;;;;;;16.42;11.32;;;;;;;;;;5037214;28;20036;-67
2022/04/01 16:26:45;;;;;;;13.27;10.30;;;;;;;;;;5036479;28;20029;-66
2022/04/01 16:29:31;;;;;;;12.75;9.88;;;;;;;;;;5037227;28;20135;-65
2022/04/01 16:32:16;;;;;;;13.40;11.25;;;;;;;;;;5035456;28;20024;-61
2022/04/01 16:35:06;;;;;;;14.50;11.20;;;;;;;;;;5044252;28;20107;-61